الصفحة الرئيسية
METAR-TAF:

METAR-TAF

مطار :

إيبوه, ماليزيا

دائرة عرض: 04-34-09N, خط طول: 101-05-35E, ارتفاع: 40 متر

مراقبة الطقس الحالي

تاريخ ووقت الإصدار 1ساعة و 7 دقيقة قبل الساعة 21:00UTC
ريح 1 عقدةمن اتجاهات متغيرة
درجة الحرارة 26°درجة مئوية
الرطوبة 89%
ضغط 1008 hPa
الرؤية: 8000 متر
غيوم قليلة على ارتفاع 2900 قدم

METAR: WMKI 022100Z VRB01KT 8000 FEW029 26/24 Q1008

زمن: 06:07 (22:07 UTC)

توقعات

تاريخ ووقت الإصدار 5ساعات و 7 دقيقة قبل الساعة 17:00UTC
التوقعات صالحة من02 الساعة 18 UTC إلى 03 الساعة 18 UTC
ريح 5 عقدة من الشرق/الشمال الشرقي
الرؤية: 8000 متر
غيوم قليلة على ارتفاع 2800 قدم
أصبح
من 03 الساعة 00 UTC إلى 03 الساعة 02 UTC
غيوم قليلة على ارتفاع 1900 قدم
أصبح
من 03 الساعة 06 UTC إلى 03 الساعة 08 UTC
ريح 5 عقدة من الجنوب الغربي
غيوم قليلة على ارتفاع 1700 قدم, مزنة ركامية.
مؤقت
من 03 الساعة 09 UTC إلى 03 الساعة 13 UTC
الرؤية: 6000 متر
غيوم قليلة على ارتفاع 1000 قدم
غيوم قليلة على ارتفاع 1700 قدم, مزنة ركامية.
عاصفة رعدية, مطر خفيف

TAF: WMKI 021700Z 0218/0318 07005KT 8000 FEW028 BECMG 0300/0302 FEW019 BECMG 0306/0308 22005KT FEW017CB TEMPO 0309/0313 6000 -TSRA FEW010 FEW017CB

أرصاد الطقس والتوقعات من أكثر من 4000 مطار (تقارير الطقس للمطار METAR والتنبؤ بالطقس بالمطارTAF).

المحطات المتاحة هي النقط الصفراء والحمراء على الخريطة.

حرك المؤشر فوق النقطة لمعرفة اسم المحطة.

ثم انقر لمعرفة أرصاد وتوقعات الطقس.

لتغيير الخارطة: اضغط على الأزرار الخضراء مع رمز الصليب الأسود للتكبير. على الزر الأخضر مع شرطة للتصغير، أو على الأسهم الخضراء للخرائط المجاورة.


METAR-TAF: